sensor_id;sensor_type;location;lat;lon;timestamp;temperature;humidity
59881;DHT22;45751;51.380;10.326;2023-08-20T00:01:12;21.90;99.90
59881;DHT22;45751;51.380;10.326;2023-08-20T00:03:40;21.90;99.90
59881;DHT22;45751;51.380;10.326;2023-08-20T00:06:07;21.80;99.90
59881;DHT22;45751;51.380;10.326;2023-08-20T00:08:34;21.80;99.90
59881;DHT22;45751;51.380;10.326;2023-08-20T00:11:02;21.80;99.90
59881;DHT22;45751;51.380;10.326;2023-08-20T00:13:31;21.80;99.90
59881;DHT22;45751;51.380;10.326;2023-08-20T00:15:58;21.80;99.90
59881;DHT22;45751;51.380;10.326;2023-08-20T00:18:25;21.70;99.90
59881;DHT22;45751;51.380;10.326;2023-08-20T00:20:53;21.70;99.90
59881;DHT22;45751;51.380;10.326;2023-08-20T00:23:21;21.70;99.90
59881;DHT22;45751;51.380;10.326;2023-08-20T00:25:48;21.60;99.90
59881;DHT22;45751;51.380;10.326;2023-08-20T00:28:15;21.60;99.90
59881;DHT22;45751;51.380;10.326;2023-08-20T00:30:42;21.60;99.90
59881;DHT22;45751;51.380;10.326;2023-08-20T00:33:10;21.50;99.90
59881;DHT22;45751;51.380;10.326;2023-08-20T00:35:37;21.50;99.90
59881;DHT22;45751;51.380;10.326;2023-08-20T00:38:04;21.50;99.90
59881;DHT22;45751;51.380;10.326;2023-08-20T00:40:32;21.50;99.90
59881;DHT22;45751;51.380;10.326;2023-08-20T00:42:59;21.50;99.90
59881;DHT22;45751;51.380;10.326;2023-08-20T00:45:26;21.40;99.90
59881;DHT22;45751;51.380;10.326;2023-08-20T00:47:54;21.40;99.90
59881;DHT22;45751;51.380;10.326;2023-08-20T00:50:21;21.40;99.90
59881;DHT22;45751;51.380;10.326;2023-08-20T00:52:48;21.40;99.90
59881;DHT22;45751;51.380;10.326;2023-08-20T00:55:15;21.40;99.90
59881;DHT22;45751;51.380;10.326;2023-08-20T00:57:42;21.40;99.90
59881;DHT22;45751;51.380;10.326;2023-08-20T01:00:09;21.40;99.90
59881;DHT22;45751;51.380;10.326;2023-08-20T01:02:39;21.40;99.90
59881;DHT22;45751;51.380;10.326;2023-08-20T01:05:10;21.30;99.90
59881;DHT22;45751;51.380;10.326;2023-08-20T01:12:48;21.30;99.90
59881;DHT22;45751;51.380;10.326;2023-08-20T01:15:16;21.30;99.90
59881;DHT22;45751;51.380;10.326;2023-08-20T01:17:44;21.30;99.90
59881;DHT22;45751;51.380;10.326;2023-08-20T01:20:13;21.30;99.90
59881;DHT22;45751;51.380;10.326;2023-08-20T01:30:48;21.30;99.90
59881;DHT22;45751;51.380;10.326;2023-08-20T01:33:18;21.20;99.90
59881;DHT22;45751;51.380;10.326;2023-08-20T01:35:46;21.20;99.90
59881;DHT22;45751;51.380;10.326;2023-08-20T01:38:16;21.20;99.90
59881;DHT22;45751;51.380;10.326;2023-08-20T01:40:43;21.20;99.90
59881;DHT22;45751;51.380;10.326;2023-08-20T01:43:10;21.10;99.90
59881;DHT22;45751;51.380;10.326;2023-08-20T01:45:37;21.10;99.90
59881;DHT22;45751;51.380;10.326;2023-08-20T01:48:04;21.10;99.90
59881;DHT22;45751;51.380;10.326;2023-08-20T01:50:32;21.10;99.90
59881;DHT22;45751;51.380;10.326;2023-08-20T01:52:59;21.10;99.90
59881;DHT22;45751;51.380;10.326;2023-08-20T01:55:26;21.10;99.90
59881;DHT22;45751;51.380;10.326;2023-08-20T01:57:58;21.10;99.90
59881;DHT22;45751;51.380;10.326;2023-08-20T02:00:25;21.10;99.90
59881;DHT22;45751;51.380;10.326;2023-08-20T02:02:57;21.10;99.90
59881;DHT22;45751;51.380;10.326;2023-08-20T02:05:24;21.00;99.90
59881;DHT22;45751;51.380;10.326;2023-08-20T02:07:51;21.00;99.90
59881;DHT22;45751;51.380;10.326;2023-08-20T02:10:18;21.00;99.90
59881;DHT22;45751;51.380;10.326;2023-08-20T02:12:45;21.00;99.90
59881;DHT22;45751;51.380;10.326;2023-08-20T02:15:12;21.00;99.90
59881;DHT22;45751;51.380;10.326;2023-08-20T02:17:39;21.00;99.90
59881;DHT22;45751;51.380;10.326;2023-08-20T02:20:06;21.00;99.90
59881;DHT22;45751;51.380;10.326;2023-08-20T02:22:36;20.90;99.90
59881;DHT22;45751;51.380;10.326;2023-08-20T02:25:04;20.90;99.90
59881;DHT22;45751;51.380;10.326;2023-08-20T02:27:31;20.90;99.90
59881;DHT22;45751;51.380;10.326;2023-08-20T02:29:59;20.90;99.90
59881;DHT22;45751;51.380;10.326;2023-08-20T02:32:26;20.90;99.90
59881;DHT22;45751;51.380;10.326;2023-08-20T02:34:53;20.90;99.90
59881;DHT22;45751;51.380;10.326;2023-08-20T02:37:20;20.80;99.90
59881;DHT22;45751;51.380;10.326;2023-08-20T02:39:47;20.80;99.90
59881;DHT22;45751;51.380;10.326;2023-08-20T02:42:14;20.80;99.90
59881;DHT22;45751;51.380;10.326;2023-08-20T02:44:41;20.80;99.90
59881;DHT22;45751;51.380;10.326;2023-08-20T02:47:08;20.80;99.90
59881;DHT22;45751;51.380;10.326;2023-08-20T02:49:35;20.80;99.90
59881;DHT22;45751;51.380;10.326;2023-08-20T02:52:02;20.80;99.90
59881;DHT22;45751;51.380;10.326;2023-08-20T02:54:29;20.80;99.90
59881;DHT22;45751;51.380;10.326;2023-08-20T02:56:59;20.80;99.90
59881;DHT22;45751;51.380;10.326;2023-08-20T02:59:26;20.80;99.90
59881;DHT22;45751;51.380;10.326;2023-08-20T03:01:53;20.80;99.90
59881;DHT22;45751;51.380;10.326;2023-08-20T03:04:20;20.80;99.90
59881;DHT22;45751;51.380;10.326;2023-08-20T03:06:47;20.90;99.90
59881;DHT22;45751;51.380;10.326;2023-08-20T03:09:14;20.90;99.90
59881;DHT22;45751;51.380;10.326;2023-08-20T03:11:41;20.90;99.90
59881;DHT22;45751;51.380;10.326;2023-08-20T03:14:08;20.90;99.90
59881;DHT22;45751;51.380;10.326;2023-08-20T03:16:35;21.00;99.90
59881;DHT22;45751;51.380;10.326;2023-08-20T03:19:01;21.00;99.90
59881;DHT22;45751;51.380;10.326;2023-08-20T03:21:29;21.00;99.90
59881;DHT22;45751;51.380;10.326;2023-08-20T03:23:56;21.00;99.90
59881;DHT22;45751;51.380;10.326;2023-08-20T03:26:23;21.00;99.90
59881;DHT22;45751;51.380;10.326;2023-08-20T03:28:50;21.00;99.90
59881;DHT22;45751;51.380;10.326;2023-08-20T03:31:17;21.00;99.90
59881;DHT22;45751;51.380;10.326;2023-08-20T03:33:45;21.00;99.90
59881;DHT22;45751;51.380;10.326;2023-08-20T03:36:12;21.00;99.90
59881;DHT22;45751;51.380;10.326;2023-08-20T03:38:41;21.00;99.90
59881;DHT22;45751;51.380;10.326;2023-08-20T03:41:08;21.00;99.90
59881;DHT22;45751;51.380;10.326;2023-08-20T03:43:35;21.00;99.90
59881;DHT22;45751;51.380;10.326;2023-08-20T03:46:02;21.00;99.90
59881;DHT22;45751;51.380;10.326;2023-08-20T03:48:29;21.00;99.90
59881;DHT22;45751;51.380;10.326;2023-08-20T03:50:56;20.90;99.90
59881;DHT22;45751;51.380;10.326;2023-08-20T03:53:23;20.90;99.90
59881;DHT22;45751;51.380;10.326;2023-08-20T03:55:50;20.90;99.90
59881;DHT22;45751;51.380;10.326;2023-08-20T03:58:17;20.90;99.90
59881;DHT22;45751;51.380;10.326;2023-08-20T04:00:44;20.90;99.90
59881;DHT22;45751;51.380;10.326;2023-08-20T04:03:11;20.90;99.90
59881;DHT22;45751;51.380;10.326;2023-08-20T04:05:39;20.90;99.90
59881;DHT22;45751;51.380;10.326;2023-08-20T04:08:06;20.80;99.90
59881;DHT22;45751;51.380;10.326;2023-08-20T04:10:33;20.80;99.90
59881;DHT22;45751;51.380;10.326;2023-08-20T04:13:00;20.80;99.90
59881;DHT22;45751;51.380;10.326;2023-08-20T04:15:27;20.70;99.90
59881;DHT22;45751;51.380;10.326;2023-08-20T04:17:55;20.70;99.90
59881;DHT22;45751;51.380;10.326;2023-08-20T04:20:24;20.70;99.90
59881;DHT22;45751;51.380;10.326;2023-08-20T04:22:52;20.70;99.90
59881;DHT22;45751;51.380;10.326;2023-08-20T04:25:19;20.70;99.90
59881;DHT22;45751;51.380;10.326;2023-08-20T04:27:46;20.70;99.90
59881;DHT22;45751;51.380;10.326;2023-08-20T04:30:14;20.70;99.90
59881;DHT22;45751;51.380;10.326;2023-08-20T04:32:41;20.60;99.90
59881;DHT22;45751;51.380;10.326;2023-08-20T04:35:08;20.60;99.90
59881;DHT22;45751;51.380;10.326;2023-08-20T04:37:38;20.60;99.90
59881;DHT22;45751;51.380;10.326;2023-08-20T04:40:05;20.60;99.90
59881;DHT22;45751;51.380;10.326;2023-08-20T04:42:34;20.60;99.90
59881;DHT22;45751;51.380;10.326;2023-08-20T04:45:01;20.50;99.90
59881;DHT22;45751;51.380;10.326;2023-08-20T04:47:29;20.70;99.90
59881;DHT22;45751;51.380;10.326;2023-08-20T04:49:56;20.60;99.90
59881;DHT22;45751;51.380;10.326;2023-08-20T04:52:23;20.60;99.90
59881;DHT22;45751;51.380;10.326;2023-08-20T04:54:50;20.60;99.90
59881;DHT22;45751;51.380;10.326;2023-08-20T04:57:20;20.60;99.90
59881;DHT22;45751;51.380;10.326;2023-08-20T04:59:48;20.50;99.90
59881;DHT22;45751;51.380;10.326;2023-08-20T05:02:15;20.60;99.90
59881;DHT22;45751;51.380;10.326;2023-08-20T05:04:51;20.50;99.90
59881;DHT22;45751;51.380;10.326;2023-08-20T05:07:18;20.50;99.90
59881;DHT22;45751;51.380;10.326;2023-08-20T05:09:45;20.50;99.90
59881;DHT22;45751;51.380;10.326;2023-08-20T05:12:13;20.50;99.90
59881;DHT22;45751;51.380;10.326;2023-08-20T05:14:40;20.50;99.90
59881;DHT22;45751;51.380;10.326;2023-08-20T05:17:06;20.50;99.90
59881;DHT22;45751;51.380;10.326;2023-08-20T05:19:33;20.50;99.90
59881;DHT22;45751;51.380;10.326;2023-08-20T05:22:00;20.50;99.90
59881;DHT22;45751;51.380;10.326;2023-08-20T05:24:31;20.50;99.90
59881;DHT22;45751;51.380;10.326;2023-08-20T05:27:13;20.50;99.90
59881;DHT22;45751;51.380;10.326;2023-08-20T05:29:49;20.50;99.90
59881;DHT22;45751;51.380;10.326;2023-08-20T05:32:17;20.40;99.90
59881;DHT22;45751;51.380;10.326;2023-08-20T05:34:44;20.40;99.90
59881;DHT22;45751;51.380;10.326;2023-08-20T05:37:11;20.40;99.90
59881;DHT22;45751;51.380;10.326;2023-08-20T05:39:43;20.40;99.90
59881;DHT22;45751;51.380;10.326;2023-08-20T05:42:11;20.40;99.90
59881;DHT22;45751;51.380;10.326;2023-08-20T05:44:42;20.40;99.90
59881;DHT22;45751;51.380;10.326;2023-08-20T05:47:13;20.40;99.90
59881;DHT22;45751;51.380;10.326;2023-08-20T05:49:40;20.30;99.90
59881;DHT22;45751;51.380;10.326;2023-08-20T05:52:07;20.30;99.90
59881;DHT22;45751;51.380;10.326;2023-08-20T05:54:34;20.40;99.90
59881;DHT22;45751;51.380;10.326;2023-08-20T05:57:01;20.40;99.90
59881;DHT22;45751;51.380;10.326;2023-08-20T05:59:29;20.40;99.90
59881;DHT22;45751;51.380;10.326;2023-08-20T06:01:56;20.40;99.90
59881;DHT22;45751;51.380;10.326;2023-08-20T06:04:23;20.40;99.90
59881;DHT22;45751;51.380;10.326;2023-08-20T06:06:50;20.40;99.90
59881;DHT22;45751;51.380;10.326;2023-08-20T06:09:17;20.40;99.90
59881;DHT22;45751;51.380;10.326;2023-08-20T06:11:44;20.40;99.90
59881;DHT22;45751;51.380;10.326;2023-08-20T06:14:11;20.30;99.90
59881;DHT22;45751;51.380;10.326;2023-08-20T06:16:38;20.40;99.90
59881;DHT22;45751;51.380;10.326;2023-08-20T06:19:05;20.30;99.90
59881;DHT22;45751;51.380;10.326;2023-08-20T06:21:31;20.30;99.90
59881;DHT22;45751;51.380;10.326;2023-08-20T06:23:58;20.40;99.90
59881;DHT22;45751;51.380;10.326;2023-08-20T06:26:25;20.40;99.90
59881;DHT22;45751;51.380;10.326;2023-08-20T06:28:52;20.40;99.90
59881;DHT22;45751;51.380;10.326;2023-08-20T06:31:19;20.50;99.90
59881;DHT22;45751;51.380;10.326;2023-08-20T06:33:47;20.50;99.90
59881;DHT22;45751;51.380;10.326;2023-08-20T06:36:14;20.50;99.90
59881;DHT22;45751;51.380;10.326;2023-08-20T06:38:42;20.50;99.90
59881;DHT22;45751;51.380;10.326;2023-08-20T06:41:09;20.50;99.90
59881;DHT22;45751;51.380;10.326;2023-08-20T06:43:36;20.50;99.90
59881;DHT22;45751;51.380;10.326;2023-08-20T06:46:03;20.50;99.90
59881;DHT22;45751;51.380;10.326;2023-08-20T06:48:30;20.60;99.90
59881;DHT22;45751;51.380;10.326;2023-08-20T06:50:57;20.60;99.90
59881;DHT22;45751;51.380;10.326;2023-08-20T06:53:24;20.60;99.90
59881;DHT22;45751;51.380;10.326;2023-08-20T06:55:51;20.70;99.90
59881;DHT22;45751;51.380;10.326;2023-08-20T06:58:18;20.70;99.90
59881;DHT22;45751;51.380;10.326;2023-08-20T07:00:45;20.70;99.90
59881;DHT22;45751;51.380;10.326;2023-08-20T07:03:11;20.70;99.90
59881;DHT22;45751;51.380;10.326;2023-08-20T07:05:38;20.80;99.90
59881;DHT22;45751;51.380;10.326;2023-08-20T07:08:05;20.80;99.90
59881;DHT22;45751;51.380;10.326;2023-08-20T07:10:32;20.80;99.90
59881;DHT22;45751;51.380;10.326;2023-08-20T07:12:59;20.90;99.90
59881;DHT22;45751;51.380;10.326;2023-08-20T07:15:26;21.00;99.90
59881;DHT22;45751;51.380;10.326;2023-08-20T07:17:53;21.00;99.90
59881;DHT22;45751;51.380;10.326;2023-08-20T07:20:20;21.00;99.90
59881;DHT22;45751;51.380;10.326;2023-08-20T07:22:47;21.10;99.90
59881;DHT22;45751;51.380;10.326;2023-08-20T07:25:14;21.10;99.90
59881;DHT22;45751;51.380;10.326;2023-08-20T07:27:40;21.10;99.90
59881;DHT22;45751;51.380;10.326;2023-08-20T07:30:10;21.10;99.90
59881;DHT22;45751;51.380;10.326;2023-08-20T07:32:37;21.20;99.90
59881;DHT22;45751;51.380;10.326;2023-08-20T07:35:04;21.20;99.90
59881;DHT22;45751;51.380;10.326;2023-08-20T07:37:37;21.30;99.90
59881;DHT22;45751;51.380;10.326;2023-08-20T07:40:04;21.40;99.90
59881;DHT22;45751;51.380;10.326;2023-08-20T07:42:31;21.40;99.90
59881;DHT22;45751;51.380;10.326;2023-08-20T07:44:58;21.50;99.90
59881;DHT22;45751;51.380;10.326;2023-08-20T07:47:25;21.60;99.90
59881;DHT22;45751;51.380;10.326;2023-08-20T07:49:52;21.60;99.90
59881;DHT22;45751;51.380;10.326;2023-08-20T07:52:19;21.70;99.90
59881;DHT22;45751;51.380;10.326;2023-08-20T07:54:46;21.70;99.90
59881;DHT22;45751;51.380;10.326;2023-08-20T07:57:16;21.80;99.90
59881;DHT22;45751;51.380;10.326;2023-08-20T07:59:43;21.80;99.90
59881;DHT22;45751;51.380;10.326;2023-08-20T08:02:10;21.90;99.90
59881;DHT22;45751;51.380;10.326;2023-08-20T08:04:37;22.10;99.90
59881;DHT22;45751;51.380;10.326;2023-08-20T08:07:03;22.00;99.90
59881;DHT22;45751;51.380;10.326;2023-08-20T08:09:31;22.10;99.90
59881;DHT22;45751;51.380;10.326;2023-08-20T08:11:59;22.10;99.90
59881;DHT22;45751;51.380;10.326;2023-08-20T08:14:26;22.20;99.90
59881;DHT22;45751;51.380;10.326;2023-08-20T08:16:53;22.30;99.90
59881;DHT22;45751;51.380;10.326;2023-08-20T08:19:20;22.30;99.90
59881;DHT22;45751;51.380;10.326;2023-08-20T08:21:47;22.40;99.90
59881;DHT22;45751;51.380;10.326;2023-08-20T08:24:15;22.40;99.90
59881;DHT22;45751;51.380;10.326;2023-08-20T08:26:42;22.40;99.90
59881;DHT22;45751;51.380;10.326;2023-08-20T08:29:09;22.50;99.90
59881;DHT22;45751;51.380;10.326;2023-08-20T08:31:36;22.50;99.90
59881;DHT22;45751;51.380;10.326;2023-08-20T08:34:03;22.60;99.90
59881;DHT22;45751;51.380;10.326;2023-08-20T08:36:30;22.60;99.90
59881;DHT22;45751;51.380;10.326;2023-08-20T08:38:57;22.70;99.90
59881;DHT22;45751;51.380;10.326;2023-08-20T08:41:25;22.80;99.90
59881;DHT22;45751;51.380;10.326;2023-08-20T08:43:53;22.80;99.90
59881;DHT22;45751;51.380;10.326;2023-08-20T08:46:22;22.90;99.90
59881;DHT22;45751;51.380;10.326;2023-08-20T08:48:51;23.00;99.90
59881;DHT22;45751;51.380;10.326;2023-08-20T08:51:19;23.00;99.90
59881;DHT22;45751;51.380;10.326;2023-08-20T08:53:46;23.10;99.90
59881;DHT22;45751;51.380;10.326;2023-08-20T08:56:13;23.20;99.90
59881;DHT22;45751;51.380;10.326;2023-08-20T08:58:40;23.20;99.90
59881;DHT22;45751;51.380;10.326;2023-08-20T09:01:07;23.30;99.90
59881;DHT22;45751;51.380;10.326;2023-08-20T09:03:34;23.30;99.90
59881;DHT22;45751;51.380;10.326;2023-08-20T09:06:02;23.40;99.90
59881;DHT22;45751;51.380;10.326;2023-08-20T09:08:34;23.30;99.90
59881;DHT22;45751;51.380;10.326;2023-08-20T09:11:01;23.40;99.90
59881;DHT22;45751;51.380;10.326;2023-08-20T09:13:40;23.50;99.90
59881;DHT22;45751;51.380;10.326;2023-08-20T09:16:11;23.50;99.90
59881;DHT22;45751;51.380;10.326;2023-08-20T09:21:10;23.50;99.90
59881;DHT22;45751;51.380;10.326;2023-08-20T09:23:37;23.50;99.90
59881;DHT22;45751;51.380;10.326;2023-08-20T09:26:06;23.40;99.90
59881;DHT22;45751;51.380;10.326;2023-08-20T09:28:46;23.40;99.90
59881;DHT22;45751;51.380;10.326;2023-08-20T09:31:14;23.40;99.90
59881;DHT22;45751;51.380;10.326;2023-08-20T09:33:52;23.30;99.90
59881;DHT22;45751;51.380;10.326;2023-08-20T09:36:28;23.20;99.90
59881;DHT22;45751;51.380;10.326;2023-08-20T09:38:55;23.20;99.90
59881;DHT22;45751;51.380;10.326;2023-08-20T09:41:26;23.10;99.90
59881;DHT22;45751;51.380;10.326;2023-08-20T09:43:56;23.10;99.90
59881;DHT22;45751;51.380;10.326;2023-08-20T09:46:25;23.10;99.90
59881;DHT22;45751;51.380;10.326;2023-08-20T09:48:56;23.10;99.90
59881;DHT22;45751;51.380;10.326;2023-08-20T09:51:27;23.10;99.90
59881;DHT22;45751;51.380;10.326;2023-08-20T09:54:13;23.10;99.90
59881;DHT22;45751;51.380;10.326;2023-08-20T09:56:43;23.00;99.90
59881;DHT22;45751;51.380;10.326;2023-08-20T09:59:10;23.10;99.90
59881;DHT22;45751;51.380;10.326;2023-08-20T10:01:38;23.10;99.90
59881;DHT22;45751;51.380;10.326;2023-08-20T10:04:06;23.10;99.90
59881;DHT22;45751;51.380;10.326;2023-08-20T10:06:34;23.10;99.90
59881;DHT22;45751;51.380;10.326;2023-08-20T10:09:02;23.10;99.90
59881;DHT22;45751;51.380;10.326;2023-08-20T10:11:29;23.10;99.90
59881;DHT22;45751;51.380;10.326;2023-08-20T10:13:56;23.10;99.90
59881;DHT22;45751;51.380;10.326;2023-08-20T10:16:24;23.10;99.90
59881;DHT22;45751;51.380;10.326;2023-08-20T10:18:51;23.10;99.90
59881;DHT22;45751;51.380;10.326;2023-08-20T10:21:18;23.20;99.90
59881;DHT22;45751;51.380;10.326;2023-08-20T10:23:49;23.20;99.90
59881;DHT22;45751;51.380;10.326;2023-08-20T10:26:16;23.20;99.90
59881;DHT22;45751;51.380;10.326;2023-08-20T10:28:43;23.30;99.90
59881;DHT22;45751;51.380;10.326;2023-08-20T10:31:12;23.30;99.90
59881;DHT22;45751;51.380;10.326;2023-08-20T10:33:49;23.40;99.90
59881;DHT22;45751;51.380;10.326;2023-08-20T10:36:19;23.40;99.90
59881;DHT22;45751;51.380;10.326;2023-08-20T10:38:50;23.50;99.90
59881;DHT22;45751;51.380;10.326;2023-08-20T10:41:24;23.60;99.90
59881;DHT22;45751;51.380;10.326;2023-08-20T10:43:52;23.70;99.90
59881;DHT22;45751;51.380;10.326;2023-08-20T10:46:21;23.80;99.90
59881;DHT22;45751;51.380;10.326;2023-08-20T10:48:53;23.80;99.90
59881;DHT22;45751;51.380;10.326;2023-08-20T10:51:32;23.80;99.90
59881;DHT22;45751;51.380;10.326;2023-08-20T10:54:08;23.90;99.90
59881;DHT22;45751;51.380;10.326;2023-08-20T10:56:54;23.90;99.90
59881;DHT22;45751;51.380;10.326;2023-08-20T10:59:23;24.00;99.90
59881;DHT22;45751;51.380;10.326;2023-08-20T11:01:55;24.00;99.90
59881;DHT22;45751;51.380;10.326;2023-08-20T11:04:23;24.00;99.90
59881;DHT22;45751;51.380;10.326;2023-08-20T11:06:54;24.00;99.90
59881;DHT22;45751;51.380;10.326;2023-08-20T11:09:22;24.10;99.90
59881;DHT22;45751;51.380;10.326;2023-08-20T11:11:50;24.10;99.90
59881;DHT22;45751;51.380;10.326;2023-08-20T11:14:19;24.20;99.90
59881;DHT22;45751;51.380;10.326;2023-08-20T11:16:47;24.40;99.90
59881;DHT22;45751;51.380;10.326;2023-08-20T11:19:20;24.40;99.90
59881;DHT22;45751;51.380;10.326;2023-08-20T11:21:48;24.50;99.90
59881;DHT22;45751;51.380;10.326;2023-08-20T11:24:16;24.60;98.90
59881;DHT22;45751;51.380;10.326;2023-08-20T11:26:44;24.60;99.30
59881;DHT22;45751;51.380;10.326;2023-08-20T11:29:13;24.70;99.50
59881;DHT22;45751;51.380;10.326;2023-08-20T11:31:41;24.80;98.20
59881;DHT22;45751;51.380;10.326;2023-08-20T11:34:08;24.90;98.00
59881;DHT22;45751;51.380;10.326;2023-08-20T11:36:35;25.00;96.70
59881;DHT22;45751;51.380;10.326;2023-08-20T11:39:02;25.00;96.70
59881;DHT22;45751;51.380;10.326;2023-08-20T11:41:29;25.00;97.20
59881;DHT22;45751;51.380;10.326;2023-08-20T11:43:56;25.00;96.20
59881;DHT22;45751;51.380;10.326;2023-08-20T11:46:24;25.00;96.80
59881;DHT22;45751;51.380;10.326;2023-08-20T11:49:07;25.10;96.00
59881;DHT22;45751;51.380;10.326;2023-08-20T11:51:49;25.10;95.80
59881;DHT22;45751;51.380;10.326;2023-08-20T11:54:17;25.20;95.70
59881;DHT22;45751;51.380;10.326;2023-08-20T11:56:49;25.20;96.40
59881;DHT22;45751;51.380;10.326;2023-08-20T11:59:17;25.20;96.10
59881;DHT22;45751;51.380;10.326;2023-08-20T12:01:56;25.30;95.60
59881;DHT22;45751;51.380;10.326;2023-08-20T12:04:25;25.30;95.60
59881;DHT22;45751;51.380;10.326;2023-08-20T12:07:09;25.30;95.90
59881;DHT22;45751;51.380;10.326;2023-08-20T12:09:36;25.40;96.10
59881;DHT22;45751;51.380;10.326;2023-08-20T12:12:06;25.50;95.50
59881;DHT22;45751;51.380;10.326;2023-08-20T12:14:33;25.50;95.10
59881;DHT22;45751;51.380;10.326;2023-08-20T12:17:00;25.60;95.30
59881;DHT22;45751;51.380;10.326;2023-08-20T12:19:27;25.60;93.00
59881;DHT22;45751;51.380;10.326;2023-08-20T12:21:54;25.60;92.80
59881;DHT22;45751;51.380;10.326;2023-08-20T12:24:22;25.60;92.70
59881;DHT22;45751;51.380;10.326;2023-08-20T12:26:49;25.70;91.70
59881;DHT22;45751;51.380;10.326;2023-08-20T12:29:16;25.70;92.00
59881;DHT22;45751;51.380;10.326;2023-08-20T12:31:43;25.70;91.30
59881;DHT22;45751;51.380;10.326;2023-08-20T12:34:10;25.80;91.80
59881;DHT22;45751;51.380;10.326;2023-08-20T12:36:37;25.90;92.40
59881;DHT22;45751;51.380;10.326;2023-08-20T12:39:04;26.10;92.40
59881;DHT22;45751;51.380;10.326;2023-08-20T12:41:31;26.20;92.10
59881;DHT22;45751;51.380;10.326;2023-08-20T12:43:59;26.40;90.40
59881;DHT22;45751;51.380;10.326;2023-08-20T12:46:27;26.50;90.50
59881;DHT22;45751;51.380;10.326;2023-08-20T12:48:54;26.60;88.10
59881;DHT22;45751;51.380;10.326;2023-08-20T12:51:21;26.70;86.90
59881;DHT22;45751;51.380;10.326;2023-08-20T12:53:48;26.90;85.70
59881;DHT22;45751;51.380;10.326;2023-08-20T12:56:15;27.00;87.20
59881;DHT22;45751;51.380;10.326;2023-08-20T12:58:44;27.10;87.80
59881;DHT22;45751;51.380;10.326;2023-08-20T13:01:11;27.20;87.10
59881;DHT22;45751;51.380;10.326;2023-08-20T13:03:38;27.20;86.10
59881;DHT22;45751;51.380;10.326;2023-08-20T13:06:06;27.20;82.90
59881;DHT22;45751;51.380;10.326;2023-08-20T13:08:33;27.10;83.50
59881;DHT22;45751;51.380;10.326;2023-08-20T13:11:02;27.10;82.60
59881;DHT22;45751;51.380;10.326;2023-08-20T13:13:32;27.10;82.50
59881;DHT22;45751;51.380;10.326;2023-08-20T13:16:01;27.10;82.70
59881;DHT22;45751;51.380;10.326;2023-08-20T13:18:28;27.10;84.50
59881;DHT22;45751;51.380;10.326;2023-08-20T13:20:55;27.00;85.10
59881;DHT22;45751;51.380;10.326;2023-08-20T13:23:22;27.00;85.30
59881;DHT22;45751;51.380;10.326;2023-08-20T13:25:50;27.10;84.00
59881;DHT22;45751;51.380;10.326;2023-08-20T13:28:17;27.10;85.10
59881;DHT22;45751;51.380;10.326;2023-08-20T13:30:44;27.20;82.30
59881;DHT22;45751;51.380;10.326;2023-08-20T13:33:13;27.00;79.80
59881;DHT22;45751;51.380;10.326;2023-08-20T13:35:41;27.10;79.90
59881;DHT22;45751;51.380;10.326;2023-08-20T13:38:08;27.10;81.20
59881;DHT22;45751;51.380;10.326;2023-08-20T13:40:35;27.10;80.50
59881;DHT22;45751;51.380;10.326;2023-08-20T13:43:02;27.10;77.90
59881;DHT22;45751;51.380;10.326;2023-08-20T13:45:29;27.00;78.60
59881;DHT22;45751;51.380;10.326;2023-08-20T13:47:57;27.00;81.50
59881;DHT22;45751;51.380;10.326;2023-08-20T13:50:24;27.00;81.40
59881;DHT22;45751;51.380;10.326;2023-08-20T13:52:51;27.00;81.80
59881;DHT22;45751;51.380;10.326;2023-08-20T13:55:18;27.10;81.90
59881;DHT22;45751;51.380;10.326;2023-08-20T13:57:45;27.10;82.60
59881;DHT22;45751;51.380;10.326;2023-08-20T14:00:12;27.20;82.50
59881;DHT22;45751;51.380;10.326;2023-08-20T14:02:40;27.40;82.20
59881;DHT22;45751;51.380;10.326;2023-08-20T14:05:07;27.60;78.20
59881;DHT22;45751;51.380;10.326;2023-08-20T14:07:34;27.70;75.30
59881;DHT22;45751;51.380;10.326;2023-08-20T14:10:02;27.80;75.40
59881;DHT22;45751;51.380;10.326;2023-08-20T14:12:33;27.80;73.30
59881;DHT22;45751;51.380;10.326;2023-08-20T14:15:03;27.80;72.70
59881;DHT22;45751;51.380;10.326;2023-08-20T14:17:30;27.80;74.20
59881;DHT22;45751;51.380;10.326;2023-08-20T14:19:57;27.80;73.50
59881;DHT22;45751;51.380;10.326;2023-08-20T14:22:24;27.90;74.70
59881;DHT22;45751;51.380;10.326;2023-08-20T14:24:51;27.90;73.10
59881;DHT22;45751;51.380;10.326;2023-08-20T14:27:18;27.90;71.50
59881;DHT22;45751;51.380;10.326;2023-08-20T14:29:45;27.90;72.20
59881;DHT22;45751;51.380;10.326;2023-08-20T14:32:12;28.00;73.10
59881;DHT22;45751;51.380;10.326;2023-08-20T14:34:39;28.10;71.40
59881;DHT22;45751;51.380;10.326;2023-08-20T14:37:06;28.20;70.20
59881;DHT22;45751;51.380;10.326;2023-08-20T14:39:35;28.30;70.70
59881;DHT22;45751;51.380;10.326;2023-08-20T14:42:02;28.40;70.90
59881;DHT22;45751;51.380;10.326;2023-08-20T14:44:29;28.50;69.00
59881;DHT22;45751;51.380;10.326;2023-08-20T14:46:56;28.50;67.60
59881;DHT22;45751;51.380;10.326;2023-08-20T14:49:23;28.60;67.10
59881;DHT22;45751;51.380;10.326;2023-08-20T14:51:50;28.60;69.00
59881;DHT22;45751;51.380;10.326;2023-08-20T14:54:23;28.70;65.90
59881;DHT22;45751;51.380;10.326;2023-08-20T14:56:50;28.70;65.30
59881;DHT22;45751;51.380;10.326;2023-08-20T14:59:16;28.60;65.60
59881;DHT22;45751;51.380;10.326;2023-08-20T15:01:43;28.60;66.40
59881;DHT22;45751;51.380;10.326;2023-08-20T15:04:10;28.60;65.70
59881;DHT22;45751;51.380;10.326;2023-08-20T15:06:37;28.70;67.00
59881;DHT22;45751;51.380;10.326;2023-08-20T15:09:04;28.70;66.70
59881;DHT22;45751;51.380;10.326;2023-08-20T15:11:32;28.90;65.10
59881;DHT22;45751;51.380;10.326;2023-08-20T15:13:59;28.90;65.80
59881;DHT22;45751;51.380;10.326;2023-08-20T15:16:26;28.90;65.10
59881;DHT22;45751;51.380;10.326;2023-08-20T15:18:53;28.90;64.40
59881;DHT22;45751;51.380;10.326;2023-08-20T15:21:20;28.90;64.10
59881;DHT22;45751;51.380;10.326;2023-08-20T15:23:46;28.80;63.90
59881;DHT22;45751;51.380;10.326;2023-08-20T15:26:13;28.80;63.50
59881;DHT22;45751;51.380;10.326;2023-08-20T15:28:40;28.90;63.30
59881;DHT22;45751;51.380;10.326;2023-08-20T15:31:07;28.90;63.40
59881;DHT22;45751;51.380;10.326;2023-08-20T15:33:34;29.00;63.30
59881;DHT22;45751;51.380;10.326;2023-08-20T15:36:01;29.20;63.00